Time;durP1;ratioP1;P1;durP2;ratioP2;P2;SDS_P1;SDS_P2;PMS_P1;PMS_P2;Temp;Humidity;BMP_temperature;BMP_pressure;BME280_temperature;BME280_humidity;BME280_pressure;Samples;Min_cycle;Max_cycle;Signal;HPM_P1;HPM_P2
2022/05/28 00:01:21;;;;;;;2.83;1.17;;;17.50;88.30;;;;;;5012245;28;20364;-78
2022/05/28 00:03:47;;;;;;;2.90;0.90;;;17.50;88.20;;;;;;5011714;28;20045;-77
2022/05/28 00:06:16;;;;;;;3.50;1.15;;;17.50;88.20;;;;;;5007377;28;20030;-78
2022/05/28 00:08:42;;;;;;;3.15;1.30;;;17.50;88.20;;;;;;5007204;28;20024;-77
2022/05/28 00:11:15;;;;;;;3.83;1.20;;;17.50;88.30;;;;;;5013398;28;20644;-77
2022/05/28 00:13:41;;;;;;;2.88;1.00;;;17.50;88.30;;;;;;5013262;28;20021;-77
2022/05/28 00:16:06;;;;;;;5.75;1.23;;;17.50;88.30;;;;;;5010220;28;20455;-77
2022/05/28 00:18:32;;;;;;;3.85;1.25;;;17.50;88.20;;;;;;5008435;28;20113;-77
2022/05/28 00:20:58;;;;;;;2.65;1.08;;;17.50;88.20;;;;;;4993458;28;20465;-78
2022/05/28 00:23:24;;;;;;;3.47;1.10;;;17.50;88.10;;;;;;4999933;28;20018;-77
2022/05/28 00:25:50;;;;;;;1.80;0.90;;;17.50;88.10;;;;;;5011898;28;20033;-77
2022/05/28 00:28:15;;;;;;;4.88;1.48;;;17.50;87.90;;;;;;5009434;28;20033;-78
2022/05/28 00:30:41;;;;;;;3.20;1.08;;;17.60;87.90;;;;;;4992523;28;20395;-77
2022/05/28 00:33:07;;;;;;;2.25;1.00;;;17.60;87.90;;;;;;5017380;28;20495;-77
2022/05/28 00:35:32;;;;;;;3.53;1.20;;;17.60;87.70;;;;;;5011513;28;20022;-77
2022/05/28 00:37:58;;;;;;;3.45;1.10;;;17.60;87.80;;;;;;5005236;28;20015;-77
2022/05/28 00:40:26;;;;;;;2.33;1.10;;;17.60;87.80;;;;;;4999762;28;20026;-77
2022/05/28 00:42:52;;;;;;;3.35;1.13;;;17.60;87.80;;;;;;4993199;28;20019;-76
2022/05/28 00:45:18;;;;;;;2.85;0.90;;;17.60;87.90;;;;;;5008619;28;20049;-77
2022/05/28 00:47:53;;;;;;;3.00;1.20;;;17.60;88.00;;;;;;4996988;28;20471;-76
2022/05/28 00:50:20;;;;;;;3.42;0.98;;;17.50;88.10;;;;;;4993592;28;20037;-76
2022/05/28 00:52:46;;;;;;;2.72;0.90;;;17.50;88.10;;;;;;5005825;28;20029;-76
2022/05/28 00:55:13;;;;;;;3.58;1.20;;;17.50;88.20;;;;;;5002450;28;20034;-76
2022/05/28 00:57:40;;;;;;;3.50;1.20;;;17.50;88.30;;;;;;5012192;28;20068;-75
2022/05/28 01:00:14;;;;;;;3.25;1.20;;;17.40;88.30;;;;;;5012628;28;20049;-77
2022/05/28 01:02:50;;;;;;;3.03;1.20;;;17.50;88.40;;;;;;5011405;28;20068;-77
2022/05/28 01:05:36;;;;;;;3.63;1.00;;;17.50;88.40;;;;;;5008171;28;20121;-77
2022/05/28 01:08:18;;;;;;;3.80;1.48;;;17.50;88.40;;;;;;4992831;28;20026;-76
2022/05/28 01:11:16;;;;;;;4.10;1.20;;;17.50;88.50;;;;;;4992898;28;20053;-77
2022/05/28 01:13:58;;;;;;;3.88;1.10;;;17.40;88.40;;;;;;4992306;28;20024;-78
2022/05/28 01:16:34;;;;;;;2.58;0.90;;;17.40;88.50;;;;;;5001053;28;20115;-76
2022/05/28 01:19:20;;;;;;;3.72;1.17;;;17.40;88.30;;;;;;5010887;28;20022;-76
2022/05/28 01:21:56;;;;;;;3.13;1.10;;;17.50;88.40;;;;;;5011275;28;20052;-77
2022/05/28 01:24:42;;;;;;;2.80;0.98;;;17.50;88.40;;;;;;5012067;28;20018;-77
2022/05/28 01:27:14;;;;;;;3.67;1.15;;;17.40;88.30;;;;;;5002351;28;20102;-77
2022/05/28 01:29:48;;;;;;;2.25;0.95;;;17.50;88.40;;;;;;5008327;28;20017;-77
2022/05/28 01:32:15;;;;;;;2.15;0.90;;;17.50;88.20;;;;;;5005470;28;20030;-78
2022/05/28 01:34:43;;;;;;;2.90;1.05;;;17.50;88.10;;;;;;4992899;28;20026;-78
2022/05/28 01:37:10;;;;;;;2.60;1.10;;;17.50;88.00;;;;;;5007559;28;20019;-78
2022/05/28 01:39:38;;;;;;;2.67;1.08;;;17.50;87.90;;;;;;5008909;28;20610;-78
2022/05/28 01:42:07;;;;;;;3.35;1.08;;;17.50;88.00;;;;;;5011866;28;20100;-78
2022/05/28 01:44:34;;;;;;;2.75;1.00;;;17.60;88.10;;;;;;5010879;28;20475;-78
2022/05/28 01:46:59;;;;;;;2.40;1.00;;;17.50;88.10;;;;;;5010739;28;20029;-78
2022/05/28 01:49:26;;;;;;;4.47;1.02;;;17.50;88.20;;;;;;5010752;28;20026;-77
2022/05/28 01:51:57;;;;;;;2.03;0.98;;;17.50;88.40;;;;;;4998878;28;20030;-77
2022/05/28 01:54:30;;;;;;;3.03;0.95;;;17.50;88.40;;;;;;4992980;28;20081;-77
2022/05/28 01:56:56;;;;;;;2.65;1.00;;;17.50;88.50;;;;;;4992342;28;20582;-77
2022/05/28 01:59:25;;;;;;;2.78;1.17;;;17.40;88.50;;;;;;5002175;28;20073;-78
2022/05/28 02:01:52;;;;;;;3.92;1.35;;;17.40;88.60;;;;;;5007711;28;20022;-78
2022/05/28 02:04:18;;;;;;;3.55;1.00;;;17.40;88.60;;;;;;5025763;28;20116;-77
2022/05/28 02:06:44;;;;;;;3.28;1.20;;;17.40;88.70;;;;;;5007216;28;20506;-78
2022/05/28 02:09:21;;;;;;;3.42;1.30;;;17.40;88.70;;;;;;4992571;28;20030;-76
2022/05/28 02:12:12;;;;;;;3.20;1.30;;;17.40;88.70;;;;;;5007975;28;20034;-76
2022/05/28 02:14:49;;;;;;;2.10;0.93;;;17.40;88.70;;;;;;5008927;28;20026;-77
2022/05/28 02:17:23;;;;;;;2.53;1.10;;;17.40;88.70;;;;;;5002983;28;20030;-78
2022/05/28 02:20:29;;;;;;;2.22;0.90;;;17.40;88.70;;;;;;5004307;28;20049;-77
2022/05/28 02:23:05;;;;;;;2.88;1.00;;;17.40;88.30;;;;;;5011559;28;20022;-78
2022/05/28 02:25:35;;;;;;;3.30;1.20;;;17.40;88.60;;;;;;5008849;28;20026;-78
2022/05/28 02:28:03;;;;;;;3.55;1.17;;;17.40;88.50;;;;;;4995344;28;20030;-78
2022/05/28 02:30:30;;;;;;;2.92;1.10;;;17.40;88.40;;;;;;5006834;28;20050;-77
2022/05/28 02:33:05;;;;;;;2.60;1.05;;;17.50;88.90;;;;;;4994390;28;20026;-77
2022/05/28 02:35:32;;;;;;;2.20;1.00;;;17.50;88.30;;;;;;5012106;28;20033;-77
2022/05/28 02:37:57;;;;;;;3.80;1.20;;;17.50;88.20;;;;;;5000529;28;20113;-77
2022/05/28 02:40:23;;;;;;;3.67;1.10;;;17.50;88.10;;;;;;5015289;28;20049;-77
2022/05/28 02:42:49;;;;;;;3.25;1.00;;;17.50;88.10;;;;;;5013792;28;20029;-77
2022/05/28 02:45:15;;;;;;;2.20;1.02;;;17.50;88.10;;;;;;5012032;28;20438;-77
2022/05/28 02:47:41;;;;;;;3.40;1.13;;;17.50;88.20;;;;;;4998592;28;20438;-77
2022/05/28 02:50:08;;;;;;;2.90;1.00;;;17.50;88.30;;;;;;5009465;28;20022;-78
2022/05/28 02:52:34;;;;;;;3.33;1.00;;;17.50;88.40;;;;;;5013348;28;20181;-77
2022/05/28 02:55:00;;;;;;;3.28;1.02;;;17.40;88.40;;;;;;5003070;28;20101;-76
2022/05/28 02:57:25;;;;;;;2.58;1.23;;;17.40;88.40;;;;;;5001987;28;20023;-77
2022/05/28 02:59:51;;;;;;;2.08;0.93;;;17.40;88.50;;;;;;5003488;28;20030;-76
2022/05/28 03:02:16;;;;;;;2.75;1.00;;;17.40;88.60;;;;;;5008740;28;20058;-76
2022/05/28 03:04:42;;;;;;;2.78;1.23;;;17.40;88.60;;;;;;5027474;28;20056;-76
2022/05/28 03:07:07;;;;;;;2.22;1.08;;;17.40;88.70;;;;;;5013043;28;20029;-77
2022/05/28 03:09:33;;;;;;;2.33;1.05;;;17.40;88.80;;;;;;5013289;28;20499;-76
2022/05/28 03:11:59;;;;;;;3.15;1.20;;;17.40;88.80;;;;;;5014456;28;20110;-76
2022/05/28 03:14:25;;;;;;;2.25;1.10;;;17.40;88.80;;;;;;4999067;28;20496;-77
2022/05/28 03:16:51;;;;;;;2.35;1.00;;;17.40;88.80;;;;;;5013245;28;20018;-77
2022/05/28 03:19:17;;;;;;;3.08;1.00;;;17.40;88.80;;;;;;5009716;28;20077;-77
2022/05/28 03:21:42;;;;;;;3.22;1.02;;;17.40;88.80;;;;;;4994605;28;20121;-77
2022/05/28 03:24:08;;;;;;;2.40;1.00;;;17.40;88.80;;;;;;5001680;28;20030;-77
2022/05/28 03:26:34;;;;;;;2.20;0.90;;;17.30;88.70;;;;;;4999742;28;20026;-78
2022/05/28 03:29:00;;;;;;;2.35;1.02;;;17.40;88.60;;;;;;5005947;28;20053;-78
2022/05/28 03:31:27;;;;;;;3.15;1.10;;;17.40;88.60;;;;;;5004283;28;20029;-77
2022/05/28 03:33:53;;;;;;;2.45;1.00;;;17.40;88.50;;;;;;5014012;28;20034;-77
2022/05/28 03:36:20;;;;;;;2.75;1.00;;;17.40;88.40;;;;;;5013848;28;20030;-78
2022/05/28 03:38:45;;;;;;;2.20;1.02;;;17.50;88.30;;;;;;5008583;28;20109;-77
2022/05/28 03:41:11;;;;;;;2.85;1.10;;;17.50;88.10;;;;;;5012614;28;20075;-77
2022/05/28 03:43:37;;;;;;;2.40;1.08;;;17.50;88.00;;;;;;5013321;28;20021;-77
2022/05/28 03:46:03;;;;;;;3.17;1.00;;;17.50;88.00;;;;;;5013676;28;20036;-78
2022/05/28 03:48:31;;;;;;;2.10;1.05;;;17.50;88.10;;;;;;5000266;28;20034;-77
2022/05/28 03:50:56;;;;;;;2.33;1.02;;;17.40;88.10;;;;;;5017256;28;20509;-77
2022/05/28 03:53:22;;;;;;;1.98;1.00;;;17.40;88.70;;;;;;5012451;28;20030;-76
2022/05/28 03:55:48;;;;;;;2.05;0.90;;;17.40;88.40;;;;;;5012332;28;20037;-77
2022/05/28 03:58:14;;;;;;;3.95;1.00;;;17.40;88.40;;;;;;5002615;28;20022;-77
2022/05/28 04:00:40;;;;;;;3.25;1.13;;;17.40;88.50;;;;;;5010692;28;20391;-77
2022/05/28 04:03:06;;;;;;;3.30;1.10;;;17.40;88.60;;;;;;5010631;28;20113;-77
2022/05/28 04:05:32;;;;;;;3.30;1.20;;;17.40;88.60;;;;;;5014112;28;20025;-77
2022/05/28 04:07:58;;;;;;;2.17;1.00;;;17.40;88.70;;;;;;5012342;28;20517;-76
2022/05/28 04:10:24;;;;;;;2.13;1.10;;;17.40;88.80;;;;;;5013385;28;20030;-77
2022/05/28 04:12:50;;;;;;;2.55;1.10;;;17.40;88.80;;;;;;5011939;28;20383;-76
2022/05/28 04:15:16;;;;;;;3.08;0.90;;;17.40;88.80;;;;;;5012168;28;20045;-77
2022/05/28 04:17:41;;;;;;;3.72;1.38;;;17.40;88.80;;;;;;5027958;28;20033;-76
2022/05/28 04:20:10;;;;;;;3.50;0.85;;;17.40;88.80;;;;;;5013178;28;20029;-77
2022/05/28 04:22:35;;;;;;;2.95;1.10;;;17.30;88.80;;;;;;5012060;28;20026;-77
2022/05/28 04:25:01;;;;;;;2.95;1.17;;;17.30;88.70;;;;;;5011804;28;20057;-76
2022/05/28 04:27:26;;;;;;;1.90;0.90;;;17.30;88.70;;;;;;4997288;28;20045;-77
2022/05/28 04:29:52;;;;;;;2.50;1.00;;;17.40;88.80;;;;;;4993225;28;20041;-76
2022/05/28 04:32:18;;;;;;;2.47;0.90;;;17.40;88.50;;;;;;5008422;28;20023;-76
2022/05/28 04:34:43;;;;;;;3.08;1.30;;;17.40;88.50;;;;;;5008551;28;20022;-77
2022/05/28 04:37:09;;;;;;;2.10;0.90;;;17.40;88.40;;;;;;5012098;28;20076;-76
2022/05/28 04:39:34;;;;;;;3.03;0.98;;;17.40;88.30;;;;;;5011555;28;20045;-76
2022/05/28 04:42:00;;;;;;;3.00;1.10;;;17.40;88.10;;;;;;5028129;28;20022;-77
2022/05/28 04:44:25;;;;;;;2.67;1.00;;;17.50;88.10;;;;;;5012592;28;20072;-76
2022/05/28 04:46:51;;;;;;;2.55;1.05;;;17.50;87.90;;;;;;5012464;28;20487;-77
2022/05/28 04:49:17;;;;;;;2.75;0.95;;;17.50;88.00;;;;;;5011764;28;20049;-77
2022/05/28 04:51:42;;;;;;;3.08;1.00;;;17.50;88.10;;;;;;5012761;28;20033;-76
2022/05/28 04:54:08;;;;;;;2.63;0.98;;;17.40;88.00;;;;;;5000466;28;20034;-77
2022/05/28 04:56:34;;;;;;;1.85;0.93;;;17.40;88.10;;;;;;5016394;28;20070;-77
2022/05/28 04:59:00;;;;;;;2.70;1.00;;;17.40;88.20;;;;;;5004568;28;20026;-76
2022/05/28 05:01:26;;;;;;;2.40;0.85;;;17.40;88.40;;;;;;5003095;28;20018;-78
2022/05/28 05:03:52;;;;;;;2.78;1.27;;;17.40;88.50;;;;;;5006384;28;20072;-78
2022/05/28 05:06:18;;;;;;;1.90;1.00;;;17.40;88.50;;;;;;5012696;28;20061;-77
2022/05/28 05:08:44;;;;;;;2.42;1.13;;;17.40;88.60;;;;;;5012265;28;20032;-77
2022/05/28 05:11:10;;;;;;;2.35;0.95;;;17.40;88.50;;;;;;5012521;28;20507;-77
2022/05/28 05:13:36;;;;;;;2.58;1.10;;;17.40;88.50;;;;;;5011236;28;20121;-77
2022/05/28 05:16:07;;;;;;;3.10;1.10;;;17.40;88.40;;;;;;5012188;28;20112;-77
2022/05/28 05:18:33;;;;;;;;;;;17.40;88.50;;;;;;5008179;28;20023;-77
2022/05/28 05:20:58;;;;;;;3.53;0.93;;;17.40;88.50;;;;;;4991275;28;19914;-78
2022/05/28 05:23:24;;;;;;;1.98;1.00;;;17.40;88.40;;;;;;4993375;28;20488;-77
2022/05/28 05:25:49;;;;;;;3.53;1.10;;;17.40;88.40;;;;;;5012318;28;20156;-77
2022/05/28 05:28:15;;;;;;;1.77;0.80;;;17.40;88.30;;;;;;5011910;28;20038;-77
2022/05/28 05:30:40;;;;;;;3.58;0.90;;;17.40;88.20;;;;;;5011866;28;20026;-78
2022/05/28 05:33:06;;;;;;;3.22;1.13;;;17.40;88.10;;;;;;5011126;28;20022;-78
2022/05/28 05:35:31;;;;;;;1.90;1.10;;;17.40;88.00;;;;;;5012321;28;20029;-76
2022/05/28 05:37:59;;;;;;;3.30;1.15;;;17.40;87.90;;;;;;5011854;28;20410;-77
2022/05/28 05:40:24;;;;;;;2.83;1.13;;;17.50;87.90;;;;;;5027382;28;20467;-76
2022/05/28 05:42:50;;;;;;;2.00;0.80;;;17.50;87.80;;;;;;5011018;28;20049;-78
2022/05/28 05:45:15;;;;;;;2.75;1.13;;;17.50;87.60;;;;;;5012092;28;20438;-77
2022/05/28 05:47:40;;;;;;;1.73;0.90;;;17.50;87.50;;;;;;5011818;28;20053;-77
2022/05/28 05:50:07;;;;;;;2.75;1.10;;;17.50;87.40;;;;;;5011990;28;20126;-76
2022/05/28 05:52:32;;;;;;;1.73;0.95;;;17.50;87.40;;;;;;5024789;28;20057;-76
2022/05/28 05:54:59;;;;;;;2.42;1.10;;;17.50;87.30;;;;;;5008117;28;20030;-77
2022/05/28 05:57:25;;;;;;;2.63;0.85;;;17.50;87.30;;;;;;5009204;28;20026;-75
2022/05/28 05:59:52;;;;;;;2.22;0.90;;;17.50;87.30;;;;;;4994940;28;20509;-77
2022/05/28 06:02:18;;;;;;;22.40;2.78;;;17.50;87.30;;;;;;4996111;28;20030;-77
2022/05/28 06:04:43;;;;;;;4.18;1.20;;;17.40;86.80;;;;;;5011507;28;20026;-76
2022/05/28 06:07:09;;;;;;;5.57;1.25;;;17.40;87.40;;;;;;5010815;28;20176;-76
2022/05/28 06:09:34;;;;;;;12.15;1.80;;;17.50;86.80;;;;;;4996049;28;20027;-76
2022/05/28 06:12:00;;;;;;;12.30;2.00;;;17.50;86.20;;;;;;4996353;28;20391;-77
2022/05/28 06:14:26;;;;;;;13.88;1.80;;;17.50;86.30;;;;;;5011137;28;20033;-76
2022/05/28 06:16:51;;;;;;;11.18;1.50;;;17.50;86.20;;;;;;4995409;28;20395;-76
2022/05/28 06:19:17;;;;;;;9.05;1.60;;;17.50;86.30;;;;;;5010890;28;20509;-77
2022/05/28 06:21:42;;;;;;;9.23;1.70;;;17.60;86.30;;;;;;5010865;28;20026;-76
2022/05/28 06:24:08;;;;;;;8.88;1.77;;;17.60;86.60;;;;;;4995691;28;20092;-76
2022/05/28 06:26:34;;;;;;;7.15;1.30;;;17.60;86.40;;;;;;4995988;28;20109;-77
2022/05/28 06:28:59;;;;;;;6.88;1.30;;;17.70;86.80;;;;;;4995298;28;20050;-76
2022/05/28 06:31:25;;;;;;;9.98;1.67;;;17.70;86.90;;;;;;5010994;28;20062;-76
2022/05/28 06:33:50;;;;;;;7.32;1.63;;;17.70;87.30;;;;;;5010627;28;20073;-76
2022/05/28 06:36:16;;;;;;;8.50;1.65;;;17.90;87.40;;;;;;5010575;28;20435;-76
2022/05/28 06:38:42;;;;;;;7.57;1.33;;;17.90;87.50;;;;;;5010383;28;20018;-77
2022/05/28 06:41:08;;;;;;;7.68;1.50;;;18.00;88.40;;;;;;5010657;28;20113;-76
2022/05/28 06:43:34;;;;;;;7.90;1.40;;;18.20;88.50;;;;;;4995387;28;20073;-76
2022/05/28 06:46:02;;;;;;;6.43;1.50;;;18.30;88.40;;;;;;5010577;28;20034;-76
2022/05/28 06:48:27;;;;;;;13.07;1.77;;;18.40;88.90;;;;;;4995026;28;20034;-76
2022/05/28 06:51:02;;;;;;;8.23;1.40;;;18.50;89.20;;;;;;4994945;28;20057;-77
2022/05/28 06:53:29;;;;;;;6.47;1.45;;;18.50;89.10;;;;;;4994858;28;20026;-77
2022/05/28 06:55:55;;;;;;;9.80;1.70;;;18.60;89.40;;;;;;4994873;28;20022;-77
2022/05/28 06:58:21;;;;;;;9.95;1.83;;;18.60;89.50;;;;;;4994836;28;20038;-77
2022/05/28 07:00:46;;;;;;;6.45;1.63;;;18.70;89.50;;;;;;4994990;28;20065;-77
2022/05/28 07:03:14;;;;;;;7.97;1.70;;;18.70;89.40;;;;;;4994774;28;20108;-77
2022/05/28 07:05:40;;;;;;;5.85;1.33;;;18.70;89.30;;;;;;4995151;28;20034;-77
2022/05/28 07:08:06;;;;;;;9.95;1.98;;;18.70;89.30;;;;;;5020913;28;20402;-78
2022/05/28 07:10:31;;;;;;;8.27;1.50;;;18.80;88.90;;;;;;5013259;28;20026;-76
2022/05/28 07:12:57;;;;;;;7.15;1.58;;;18.80;88.70;;;;;;5013406;28;20030;-78
2022/05/28 07:15:23;;;;;;;10.02;1.52;;;18.90;88.60;;;;;;5014743;28;20030;-76
2022/05/28 07:17:49;;;;;;;9.85;1.60;;;19.00;88.20;;;;;;5014134;28;20065;-76
2022/05/28 07:20:14;;;;;;;11.95;1.90;;;19.00;88.00;;;;;;5013152;28;20069;-77
2022/05/28 07:22:40;;;;;;;5.40;1.40;;;18.90;88.10;;;;;;5012746;28;20049;-77
2022/05/28 07:25:06;;;;;;;7.38;1.58;;;18.80;88.40;;;;;;5005310;28;20014;-76
2022/05/28 07:27:31;;;;;;;9.27;1.67;;;18.80;88.50;;;;;;5009442;28;20554;-77
2022/05/28 07:29:57;;;;;;;9.70;1.85;;;18.80;88.70;;;;;;5009909;28;20128;-76
2022/05/28 07:32:25;;;;;;;6.05;1.88;;;18.80;88.60;;;;;;5012867;28;20026;-76
2022/05/28 07:34:51;;;;;;;6.50;1.50;;;18.80;88.60;;;;;;5002360;28;20030;-76
2022/05/28 07:37:17;;;;;;;6.38;1.67;;;18.80;88.40;;;;;;4994041;28;20026;-77
2022/05/28 07:39:42;;;;;;;7.68;1.90;;;18.80;88.30;;;;;;4993337;28;20054;-77
2022/05/28 07:42:08;;;;;;;5.57;1.52;;;18.80;88.20;;;;;;4993205;28;20027;-76
2022/05/28 07:44:34;;;;;;;6.30;1.50;;;18.70;88.40;;;;;;4994359;28;20026;-77
2022/05/28 07:47:04;;;;;;;4.72;1.35;;;18.70;88.50;;;;;;4992760;28;20059;-76
2022/05/28 07:49:30;;;;;;;5.55;1.40;;;18.60;88.70;;;;;;4994211;28;20026;-77
2022/05/28 07:51:55;;;;;;;6.47;1.45;;;18.60;88.90;;;;;;4994232;28;20031;-77
2022/05/28 07:54:21;;;;;;;9.23;1.33;;;18.50;89.00;;;;;;4994171;28;20026;-76
2022/05/28 07:56:46;;;;;;;5.40;1.67;;;18.50;89.10;;;;;;5008702;28;20037;-77
2022/05/28 07:59:12;;;;;;;5.63;1.42;;;18.40;89.10;;;;;;4993760;28;20106;-76
2022/05/28 08:01:39;;;;;;;5.85;1.33;;;18.40;89.20;;;;;;4994148;28;20022;-77
2022/05/28 08:04:06;;;;;;;5.45;1.60;;;18.40;89.30;;;;;;4993763;28;20026;-76
2022/05/28 08:06:32;;;;;;;6.50;1.58;;;18.40;89.30;;;;;;4992614;28;20483;-76
2022/05/28 08:08:58;;;;;;;5.75;1.30;;;18.40;89.60;;;;;;4993596;28;20035;-77
2022/05/28 08:11:24;;;;;;;6.45;1.40;;;18.40;89.30;;;;;;4993745;28;20030;-76
2022/05/28 08:13:52;;;;;;;7.00;1.60;;;18.40;89.20;;;;;;4992532;28;20033;-76
2022/05/28 08:16:19;;;;;;;5.35;1.33;;;18.40;88.90;;;;;;5008893;28;20124;-77
2022/05/28 08:18:44;;;;;;;6.18;1.40;;;18.40;88.70;;;;;;4993337;28;20041;-77
2022/05/28 08:23:55;;;;;;;6.75;1.50;;;18.50;88.70;;;;;;4993591;28;20041;-77
2022/05/28 08:26:22;;;;;;;7.43;1.98;;;18.40;88.70;;;;;;4993514;28;20045;-77
2022/05/28 08:28:49;;;;;;;6.93;1.67;;;18.40;88.50;;;;;;4991315;28;20720;-77
2022/05/28 08:31:15;;;;;;;5.82;1.58;;;18.50;88.30;;;;;;4991749;28;20030;-78
2022/05/28 08:33:42;;;;;;;6.22;1.50;;;18.50;88.00;;;;;;4992840;28;20037;-77
2022/05/28 08:36:08;;;;;;;6.20;1.67;;;18.50;87.80;;;;;;4991820;28;20061;-77
2022/05/28 08:38:34;;;;;;;5.88;1.75;;;18.60;88.20;;;;;;4993196;28;20042;-77
2022/05/28 08:41:41;;;;;;;5.90;1.70;;;18.50;87.80;;;;;;4993112;28;20104;-76
2022/05/28 08:44:22;;;;;;;5.63;1.42;;;18.50;87.90;;;;;;4952289;28;20126;-77
2022/05/28 08:46:53;;;;;;;7.68;1.50;;;18.40;88.20;;;;;;4936087;29;20037;-78
2022/05/28 08:49:24;;;;;;;5.72;1.40;;;18.30;88.30;;;;;;4969011;28;20058;-77
2022/05/28 08:51:57;;;;;;;6.47;1.38;;;18.30;88.60;;;;;;4993129;28;20058;-78
2022/05/28 08:54:28;;;;;;;3.83;1.20;;;18.20;88.70;;;;;;4993641;28;20030;-77
2022/05/28 08:56:59;;;;;;;7.85;1.75;;;18.20;88.80;;;;;;4992365;28;20354;-80
2022/05/28 08:59:30;;;;;;;4.32;1.50;;;18.10;89.00;;;;;;4993276;28;20037;-77
2022/05/28 09:01:57;;;;;;;5.60;1.58;;;18.10;89.10;;;;;;4993082;28;20101;-77
2022/05/28 09:04:32;;;;;;;6.10;1.83;;;18.10;89.10;;;;;;4991890;28;20030;-76
2022/05/28 09:07:04;;;;;;;6.40;1.50;;;18.10;89.20;;;;;;4992608;28;20113;-77
2022/05/28 09:09:40;;;;;;;5.13;1.52;;;18.00;89.20;;;;;;4992931;28;20038;-78
2022/05/28 09:12:29;;;;;;;8.95;1.42;;;18.10;89.40;;;;;;4992567;28;20542;-78
2022/05/28 09:14:55;;;;;;;6.20;1.50;;;18.00;89.20;;;;;;4992708;28;20087;-78
2022/05/28 09:17:29;;;;;;;5.50;1.60;;;18.00;89.10;;;;;;4991206;28;20022;-78
2022/05/28 09:20:02;;;;;;;5.97;1.58;;;18.00;89.20;;;;;;4992338;28;20109;-77
2022/05/28 09:22:27;;;;;;;5.93;1.45;;;18.00;89.10;;;;;;4992654;28;20026;-78
2022/05/28 09:24:53;;;;;;;5.93;1.60;;;18.00;88.90;;;;;;4992584;28;20026;-77
2022/05/28 09:27:26;;;;;;;5.10;1.48;;;18.00;88.70;;;;;;4991052;28;20205;-77
2022/05/28 09:30:23;;;;;;;5.90;1.50;;;18.10;88.60;;;;;;4992731;28;20152;-78
2022/05/28 09:33:21;;;;;;;6.07;1.50;;;18.10;88.40;;;;;;4992802;28;20026;-77
2022/05/28 09:35:55;;;;;;;9.00;2.28;;;18.10;88.10;;;;;;4992993;28;20030;-77
2022/05/28 09:38:30;;;;;;;5.05;1.50;;;18.20;87.80;;;;;;4996456;28;20088;-77
2022/05/28 09:41:09;;;;;;;4.88;1.30;;;18.20;87.60;;;;;;4995678;28;20563;-78
2022/05/28 09:43:58;;;;;;;6.22;1.50;;;18.20;87.50;;;;;;4996818;28;20023;-77
2022/05/28 09:46:38;;;;;;;4.88;1.20;;;18.20;87.50;;;;;;4996708;28;20372;-77
2022/05/28 09:49:22;;;;;;;6.38;1.67;;;18.20;87.70;;;;;;4995331;28;20030;-77
2022/05/28 09:52:05;;;;;;;6.15;1.33;;;18.10;88.20;;;;;;4995387;28;20058;-77
2022/05/28 09:54:33;;;;;;;5.45;1.20;;;18.10;88.30;;;;;;4995353;28;20030;-76
2022/05/28 09:57:01;;;;;;;7.00;1.50;;;18.00;88.40;;;;;;4994822;28;20749;-77
2022/05/28 09:59:29;;;;;;;5.30;1.20;;;17.90;88.20;;;;;;4996392;28;20113;-77
2022/05/28 10:02:04;;;;;;;5.03;1.33;;;18.00;88.40;;;;;;4996479;28;20030;-76
2022/05/28 10:04:30;;;;;;;7.70;1.92;;;18.00;88.50;;;;;;4995355;28;20029;-76
2022/05/28 10:06:59;;;;;;;5.45;1.42;;;18.00;88.10;;;;;;4994798;28;20030;-77
2022/05/28 10:09:28;;;;;;;6.93;1.38;;;18.00;87.70;;;;;;4996339;28;20381;-77
2022/05/28 10:12:17;;;;;;;5.43;1.67;;;18.10;87.40;;;;;;4996260;28;20069;-77
2022/05/28 10:14:42;;;;;;;5.53;1.55;;;18.20;87.80;;;;;;4994930;28;20064;-76
2022/05/28 10:17:08;;;;;;;4.00;1.20;;;18.20;87.10;;;;;;4994388;28;20471;-77
2022/05/28 10:19:41;;;;;;;4.38;1.33;;;18.30;86.80;;;;;;4994689;28;20018;-77
2022/05/28 10:22:20;;;;;;;6.85;1.67;;;18.30;86.70;;;;;;4995979;28;20453;-77
2022/05/28 10:24:50;;;;;;;4.65;1.35;;;18.30;86.30;;;;;;4994891;28;20027;-77
2022/05/28 10:27:44;;;;;;;5.07;1.40;;;18.40;86.20;;;;;;4999689;28;20061;-77
2022/05/28 10:30:31;;;;;;;4.55;1.10;;;18.40;86.10;;;;;;5010328;28;20037;-76
2022/05/28 10:32:57;;;;;;;3.78;1.20;;;18.40;85.90;;;;;;5010881;28;20033;-77
2022/05/28 10:35:26;;;;;;;3.55;1.15;;;18.40;85.80;;;;;;5029722;28;20093;-77
2022/05/28 10:37:53;;;;;;;3.88;1.23;;;18.30;86.00;;;;;;5015174;28;20391;-77
2022/05/28 10:40:26;;;;;;;5.13;1.42;;;18.30;86.20;;;;;;5007032;28;20424;-77
2022/05/28 10:43:04;;;;;;;4.13;1.20;;;18.30;86.20;;;;;;5010697;28;20018;-77
2022/05/28 10:45:39;;;;;;;3.30;1.10;;;18.20;86.40;;;;;;5005425;28;20028;-78
2022/05/28 10:48:32;;;;;;;6.07;1.40;;;18.20;86.50;;;;;;5009661;28;20014;-77
2022/05/28 10:51:17;;;;;;;2.65;1.00;;;18.20;86.50;;;;;;4998878;28;20077;-77
2022/05/28 10:53:59;;;;;;;5.30;1.30;;;18.20;86.50;;;;;;5000710;28;20021;-76
2022/05/28 10:56:51;;;;;;;6.10;1.60;;;18.20;86.60;;;;;;4993904;28;20038;-76
2022/05/28 10:59:44;;;;;;;4.13;1.13;;;18.20;86.50;;;;;;4993998;28;20048;-77
2022/05/28 11:02:29;;;;;;;4.78;1.20;;;18.20;86.50;;;;;;4995258;28;20053;-77
2022/05/28 11:05:45;;;;;;;3.78;1.40;;;18.20;86.30;;;;;;4995016;28;20061;-76
2022/05/28 11:08:51;;;;;;;4.50;1.48;;;18.20;86.40;;;;;;4968555;28;20042;-76
2022/05/28 11:11:54;;;;;;;5.28;1.52;;;18.20;86.60;;;;;;4995121;28;20031;-77
2022/05/28 11:14:28;;;;;;;5.57;1.30;;;18.20;86.80;;;;;;4995655;28;20030;-77
2022/05/28 11:17:12;;;;;;;4.75;1.38;;;18.10;86.70;;;;;;5022005;28;20029;-77
2022/05/28 11:20:19;;;;;;;4.80;1.40;;;18.10;86.90;;;;;;5013087;28;20026;-76
2022/05/28 11:23:05;;;;;;;4.75;1.20;;;18.10;87.30;;;;;;4980754;28;20034;-76
2022/05/28 11:26:07;;;;;;;4.50;1.23;;;18.10;87.10;;;;;;5014554;28;20088;-77
2022/05/28 11:28:39;;;;;;;4.55;1.08;;;18.10;86.90;;;;;;5014615;28;20026;-77
2022/05/28 11:31:22;;;;;;;4.72;1.30;;;18.10;86.80;;;;;;5013273;28;20025;-77
2022/05/28 11:33:51;;;;;;;4.60;1.40;;;18.20;86.50;;;;;;5014717;28;20030;-77
2022/05/28 11:36:27;;;;;;;2.63;0.98;;;18.20;86.00;;;;;;5014310;28;20124;-76
2022/05/28 11:38:58;;;;;;;5.40;1.23;;;18.20;85.60;;;;;;5014134;28;20080;-76
2022/05/28 11:41:49;;;;;;;3.05;1.02;;;18.20;85.70;;;;;;5014615;28;20022;-77
2022/05/28 11:44:25;;;;;;;3.75;1.10;;;18.20;86.00;;;;;;5013205;28;20317;-77
2022/05/28 11:47:03;;;;;;;4.07;1.20;;;18.20;86.30;;;;;;5013124;28;20534;-76
2022/05/28 11:52:35;;;;;;;3.92;1.30;;;18.20;86.30;;;;;;5016847;28;20028;-76
2022/05/28 11:55:20;;;;;;;3.60;1.15;;;18.20;86.40;;;;;;5015389;28;20109;-81
2022/05/28 11:57:57;;;;;;;3.28;1.08;;;18.20;86.50;;;;;;5014586;28;20430;-76
2022/05/28 12:00:25;;;;;;;3.97;1.33;;;18.20;86.50;;;;;;5012821;28;20511;-77
2022/05/28 12:02:56;;;;;;;3.83;1.20;;;18.20;86.60;;;;;;5012556;28;20022;-76
2022/05/28 12:05:24;;;;;;;3.47;1.10;;;18.20;86.50;;;;;;5012432;28;20033;-77
2022/05/28 12:07:57;;;;;;;4.70;1.40;;;18.20;86.60;;;;;;5013347;28;20025;-77
2022/05/28 12:11:00;;;;;;;3.70;1.20;;;18.20;86.60;;;;;;5014088;28;20033;-77
2022/05/28 12:13:32;;;;;;;4.55;1.40;;;18.20;86.60;;;;;;4953618;29;20023;-77
2022/05/28 12:16:24;;;;;;;4.22;1.10;;;18.10;86.80;;;;;;5017663;28;20044;-76
2022/05/28 12:19:02;;;;;;;3.97;1.20;;;18.20;86.90;;;;;;5013041;28;20026;-76
2022/05/28 12:21:31;;;;;;;5.07;1.30;;;18.20;86.70;;;;;;5014571;28;20041;-77
2022/05/28 12:24:08;;;;;;;4.07;1.40;;;18.20;86.40;;;;;;5015111;28;20018;-76
2022/05/28 12:29:25;;;;;;;;;;;18.30;86.10;;;;;;5015032;28;20460;-77
2022/05/28 12:31:50;;;;;;;4.55;1.00;;;18.30;86.00;;;;;;5012650;28;19905;-76
2022/05/28 12:34:22;;;;;;;3.22;1.00;;;18.20;85.80;;;;;;5013589;28;20036;-77
2022/05/28 12:36:50;;;;;;;5.55;1.20;;;18.20;85.70;;;;;;5002196;28;20484;-77
2022/05/28 12:39:40;;;;;;;5.88;1.30;;;18.20;85.30;;;;;;4997710;28;20029;-76
2022/05/28 12:42:20;;;;;;;2.95;1.20;;;18.20;84.80;;;;;;4996219;28;20033;-77
2022/05/28 12:44:51;;;;;;;4.13;1.13;;;18.10;85.70;;;;;;5012676;28;20029;-76
2022/05/28 12:47:29;;;;;;;4.65;1.42;;;18.10;86.00;;;;;;5000829;28;20026;-76
2022/05/28 12:50:14;;;;;;;4.35;1.20;;;18.00;86.00;;;;;;5001651;28;20068;-76
2022/05/28 12:53:05;;;;;;;5.15;1.00;;;18.00;86.30;;;;;;5012057;28;20213;-76
2022/05/28 12:55:38;;;;;;;;;;;18.00;86.50;;;;;;5009508;28;20746;-75
2022/05/28 12:58:25;;;;;;;4.07;1.20;;;18.00;86.70;;;;;;5003431;28;19981;-76
2022/05/28 13:00:58;;;;;;;3.72;1.13;;;18.00;86.80;;;;;;4996315;28;20026;-76
2022/05/28 13:03:29;;;;;;;2.55;1.00;;;18.00;86.80;;;;;;5010835;28;20027;-76
2022/05/28 13:06:03;;;;;;;4.85;1.10;;;18.00;86.80;;;;;;4995969;28;20026;-79
2022/05/28 13:08:31;;;;;;;3.10;1.13;;;18.00;86.90;;;;;;5026509;28;20041;-75
2022/05/28 13:11:00;;;;;;;3.75;1.10;;;17.90;86.90;;;;;;5006215;28;20014;-77
2022/05/28 13:13:56;;;;;;;3.40;1.25;;;17.90;86.70;;;;;;5001974;28;20042;-76
2022/05/28 13:16:46;;;;;;;7.00;1.33;;;17.90;86.90;;;;;;5006201;28;20034;-76